sensor_id;sensor_type;location;lat;lon;timestamp;P1;durP1;ratioP1;P2;durP2;ratioP2
57401;SDS011;43226;51.110;6.998;2024-03-06T00:01:28;28.30;;;13.00;;
57401;SDS011;43226;51.110;6.998;2024-03-06T00:03:53;23.10;;;12.73;;
57401;SDS011;43226;51.110;6.998;2024-03-06T00:06:18;23.27;;;13.07;;
57401;SDS011;43226;51.110;6.998;2024-03-06T00:08:43;23.07;;;12.83;;
57401;SDS011;43226;51.110;6.998;2024-03-06T00:11:08;23.67;;;13.20;;
57401;SDS011;43226;51.110;6.998;2024-03-06T00:13:34;22.60;;;13.20;;
57401;SDS011;43226;51.110;6.998;2024-03-06T00:15:59;25.00;;;13.20;;
57401;SDS011;43226;51.110;6.998;2024-03-06T00:18:24;21.87;;;13.30;;
57401;SDS011;43226;51.110;6.998;2024-03-06T00:20:49;24.23;;;14.73;;
57401;SDS011;43226;51.110;6.998;2024-03-06T00:23:15;23.40;;;13.77;;
57401;SDS011;43226;51.110;6.998;2024-03-06T00:25:40;27.90;;;13.70;;
57401;SDS011;43226;51.110;6.998;2024-03-06T00:28:05;25.63;;;14.30;;
57401;SDS011;43226;51.110;6.998;2024-03-06T00:30:31;24.57;;;13.77;;
57401;SDS011;43226;51.110;6.998;2024-03-06T00:32:56;24.60;;;13.10;;
57401;SDS011;43226;51.110;6.998;2024-03-06T00:35:21;23.40;;;12.50;;
57401;SDS011;43226;51.110;6.998;2024-03-06T00:37:47;23.03;;;13.87;;
57401;SDS011;43226;51.110;6.998;2024-03-06T00:40:13;22.47;;;12.37;;
57401;SDS011;43226;51.110;6.998;2024-03-06T00:42:38;24.13;;;12.90;;
57401;SDS011;43226;51.110;6.998;2024-03-06T00:45:06;18.37;;;10.80;;
57401;SDS011;43226;51.110;6.998;2024-03-06T00:47:31;21.87;;;12.03;;
57401;SDS011;43226;51.110;6.998;2024-03-06T00:49:56;20.90;;;11.90;;
57401;SDS011;43226;51.110;6.998;2024-03-06T00:52:22;19.53;;;11.53;;
57401;SDS011;43226;51.110;6.998;2024-03-06T00:54:47;20.57;;;11.60;;
57401;SDS011;43226;51.110;6.998;2024-03-06T00:57:12;28.87;;;12.73;;
57401;SDS011;43226;51.110;6.998;2024-03-06T00:59:38;21.40;;;11.30;;
57401;SDS011;43226;51.110;6.998;2024-03-06T01:02:03;21.87;;;12.00;;
57401;SDS011;43226;51.110;6.998;2024-03-06T01:04:28;19.77;;;11.80;;
57401;SDS011;43226;51.110;6.998;2024-03-06T01:07:01;25.60;;;12.30;;
57401;SDS011;43226;51.110;6.998;2024-03-06T01:09:27;20.87;;;11.77;;
57401;SDS011;43226;51.110;6.998;2024-03-06T01:11:52;27.77;;;12.87;;
57401;SDS011;43226;51.110;6.998;2024-03-06T01:14:17;20.57;;;12.50;;
57401;SDS011;43226;51.110;6.998;2024-03-06T01:16:42;22.33;;;12.60;;
57401;SDS011;43226;51.110;6.998;2024-03-06T01:19:08;22.70;;;13.20;;
57401;SDS011;43226;51.110;6.998;2024-03-06T01:21:33;21.60;;;12.33;;
57401;SDS011;43226;51.110;6.998;2024-03-06T01:23:59;23.07;;;13.17;;
57401;SDS011;43226;51.110;6.998;2024-03-06T01:26:25;24.80;;;13.00;;
57401;SDS011;43226;51.110;6.998;2024-03-06T01:28:51;22.50;;;13.10;;
57401;SDS011;43226;51.110;6.998;2024-03-06T01:31:17;23.30;;;13.30;;
57401;SDS011;43226;51.110;6.998;2024-03-06T01:33:42;20.97;;;13.37;;
57401;SDS011;43226;51.110;6.998;2024-03-06T01:36:10;23.77;;;13.40;;
57401;SDS011;43226;51.110;6.998;2024-03-06T01:38:35;25.13;;;14.03;;
57401;SDS011;43226;51.110;6.998;2024-03-06T01:41:00;23.83;;;13.00;;
57401;SDS011;43226;51.110;6.998;2024-03-06T01:43:26;23.53;;;12.23;;
57401;SDS011;43226;51.110;6.998;2024-03-06T01:45:51;20.33;;;12.33;;
57401;SDS011;43226;51.110;6.998;2024-03-06T01:48:19;19.40;;;11.17;;
57401;SDS011;43226;51.110;6.998;2024-03-06T01:50:45;20.17;;;12.17;;
57401;SDS011;43226;51.110;6.998;2024-03-06T01:53:10;21.23;;;12.23;;
57401;SDS011;43226;51.110;6.998;2024-03-06T01:55:37;24.00;;;12.20;;
57401;SDS011;43226;51.110;6.998;2024-03-06T01:58:02;20.47;;;10.80;;
57401;SDS011;43226;51.110;6.998;2024-03-06T02:00:27;19.53;;;11.80;;
57401;SDS011;43226;51.110;6.998;2024-03-06T02:02:53;17.27;;;10.63;;
57401;SDS011;43226;51.110;6.998;2024-03-06T02:05:19;19.90;;;11.47;;
57401;SDS011;43226;51.110;6.998;2024-03-06T02:07:44;23.07;;;11.80;;
57401;SDS011;43226;51.110;6.998;2024-03-06T02:10:09;16.60;;;10.50;;
57401;SDS011;43226;51.110;6.998;2024-03-06T02:12:35;21.00;;;12.00;;
57401;SDS011;43226;51.110;6.998;2024-03-06T02:15:00;22.67;;;12.60;;
57401;SDS011;43226;51.110;6.998;2024-03-06T02:17:29;18.37;;;11.70;;
57401;SDS011;43226;51.110;6.998;2024-03-06T02:19:54;20.70;;;9.90;;
57401;SDS011;43226;51.110;6.998;2024-03-06T02:22:19;19.23;;;10.53;;
57401;SDS011;43226;51.110;6.998;2024-03-06T02:24:45;24.63;;;12.10;;
57401;SDS011;43226;51.110;6.998;2024-03-06T02:27:10;21.00;;;11.67;;
57401;SDS011;43226;51.110;6.998;2024-03-06T02:29:36;21.00;;;12.30;;
57401;SDS011;43226;51.110;6.998;2024-03-06T02:32:01;23.07;;;12.93;;
57401;SDS011;43226;51.110;6.998;2024-03-06T02:34:29;22.97;;;11.57;;
57401;SDS011;43226;51.110;6.998;2024-03-06T02:36:57;20.50;;;11.20;;
57401;SDS011;43226;51.110;6.998;2024-03-06T02:39:22;21.80;;;11.17;;
57401;SDS011;43226;51.110;6.998;2024-03-06T02:41:47;21.27;;;12.77;;
57401;SDS011;43226;51.110;6.998;2024-03-06T02:44:16;22.53;;;13.03;;
57401;SDS011;43226;51.110;6.998;2024-03-06T02:46:45;24.20;;;12.60;;
57401;SDS011;43226;51.110;6.998;2024-03-06T02:49:12;18.57;;;11.10;;
57401;SDS011;43226;51.110;6.998;2024-03-06T02:51:37;21.07;;;11.63;;
57401;SDS011;43226;51.110;6.998;2024-03-06T02:54:02;22.50;;;12.80;;
57401;SDS011;43226;51.110;6.998;2024-03-06T02:56:27;19.70;;;11.93;;
57401;SDS011;43226;51.110;6.998;2024-03-06T02:58:52;26.97;;;13.43;;
57401;SDS011;43226;51.110;6.998;2024-03-06T03:01:18;25.73;;;13.40;;
57401;SDS011;43226;51.110;6.998;2024-03-06T03:03:43;22.97;;;13.00;;
57401;SDS011;43226;51.110;6.998;2024-03-06T03:06:09;26.13;;;14.10;;
57401;SDS011;43226;51.110;6.998;2024-03-06T03:08:35;20.90;;;13.23;;
57401;SDS011;43226;51.110;6.998;2024-03-06T03:11:01;24.70;;;13.33;;
57401;SDS011;43226;51.110;6.998;2024-03-06T03:13:28;22.00;;;13.00;;
57401;SDS011;43226;51.110;6.998;2024-03-06T03:15:53;20.10;;;12.07;;
57401;SDS011;43226;51.110;6.998;2024-03-06T03:18:18;27.17;;;13.30;;
57401;SDS011;43226;51.110;6.998;2024-03-06T03:20:43;20.67;;;11.60;;
57401;SDS011;43226;51.110;6.998;2024-03-06T03:23:09;20.33;;;11.87;;
57401;SDS011;43226;51.110;6.998;2024-03-06T03:25:37;23.53;;;11.97;;
57401;SDS011;43226;51.110;6.998;2024-03-06T03:28:02;24.60;;;12.67;;
57401;SDS011;43226;51.110;6.998;2024-03-06T03:30:27;25.97;;;13.73;;
57401;SDS011;43226;51.110;6.998;2024-03-06T03:32:52;25.13;;;13.07;;
57401;SDS011;43226;51.110;6.998;2024-03-06T03:35:17;23.97;;;13.93;;
57401;SDS011;43226;51.110;6.998;2024-03-06T03:37:45;23.77;;;12.87;;
57401;SDS011;43226;51.110;6.998;2024-03-06T03:40:11;22.50;;;12.63;;
57401;SDS011;43226;51.110;6.998;2024-03-06T03:42:37;20.60;;;12.80;;
57401;SDS011;43226;51.110;6.998;2024-03-06T03:45:02;21.47;;;13.10;;
57401;SDS011;43226;51.110;6.998;2024-03-06T03:47:28;24.10;;;14.00;;
57401;SDS011;43226;51.110;6.998;2024-03-06T03:49:53;22.93;;;14.40;;
57401;SDS011;43226;51.110;6.998;2024-03-06T03:52:18;25.90;;;14.47;;
57401;SDS011;43226;51.110;6.998;2024-03-06T03:54:43;23.63;;;12.90;;
57401;SDS011;43226;51.110;6.998;2024-03-06T03:57:09;24.83;;;13.87;;
57401;SDS011;43226;51.110;6.998;2024-03-06T03:59:34;31.00;;;15.03;;
57401;SDS011;43226;51.110;6.998;2024-03-06T04:02:02;28.13;;;15.30;;
57401;SDS011;43226;51.110;6.998;2024-03-06T04:04:27;25.67;;;15.10;;
57401;SDS011;43226;51.110;6.998;2024-03-06T04:06:54;24.63;;;13.57;;
57401;SDS011;43226;51.110;6.998;2024-03-06T04:09:19;30.13;;;15.27;;
57401;SDS011;43226;51.110;6.998;2024-03-06T04:11:44;24.20;;;13.20;;
57401;SDS011;43226;51.110;6.998;2024-03-06T04:14:10;24.50;;;14.23;;
57401;SDS011;43226;51.110;6.998;2024-03-06T04:16:35;22.67;;;12.37;;
57401;SDS011;43226;51.110;6.998;2024-03-06T04:19:01;26.67;;;14.07;;
57401;SDS011;43226;51.110;6.998;2024-03-06T04:21:26;27.10;;;14.30;;
57401;SDS011;43226;51.110;6.998;2024-03-06T04:23:51;25.93;;;15.33;;
57401;SDS011;43226;51.110;6.998;2024-03-06T04:26:17;25.53;;;13.40;;
57401;SDS011;43226;51.110;6.998;2024-03-06T04:28:42;29.27;;;14.90;;
57401;SDS011;43226;51.110;6.998;2024-03-06T04:31:08;33.77;;;16.70;;
57401;SDS011;43226;51.110;6.998;2024-03-06T04:33:34;28.70;;;14.97;;
57401;SDS011;43226;51.110;6.998;2024-03-06T04:36:02;25.93;;;14.40;;
57401;SDS011;43226;51.110;6.998;2024-03-06T04:38:28;28.77;;;13.93;;
57401;SDS011;43226;51.110;6.998;2024-03-06T04:40:54;24.50;;;13.17;;
57401;SDS011;43226;51.110;6.998;2024-03-06T04:43:19;24.70;;;13.30;;
57401;SDS011;43226;51.110;6.998;2024-03-06T04:45:44;28.73;;;14.33;;
57401;SDS011;43226;51.110;6.998;2024-03-06T04:48:10;23.63;;;13.93;;
57401;SDS011;43226;51.110;6.998;2024-03-06T04:50:35;23.93;;;13.57;;
57401;SDS011;43226;51.110;6.998;2024-03-06T04:53:00;30.77;;;15.63;;
57401;SDS011;43226;51.110;6.998;2024-03-06T04:55:25;24.20;;;12.33;;
57401;SDS011;43226;51.110;6.998;2024-03-06T04:57:52;24.50;;;14.33;;
57401;SDS011;43226;51.110;6.998;2024-03-06T05:00:18;33.60;;;15.10;;
57401;SDS011;43226;51.110;6.998;2024-03-06T05:02:43;31.90;;;14.73;;
57401;SDS011;43226;51.110;6.998;2024-03-06T05:05:09;25.53;;;14.63;;
57401;SDS011;43226;51.110;6.998;2024-03-06T05:07:34;29.70;;;14.70;;
57401;SDS011;43226;51.110;6.998;2024-03-06T05:09:59;26.97;;;14.13;;
57401;SDS011;43226;51.110;6.998;2024-03-06T05:12:25;29.40;;;13.70;;
57401;SDS011;43226;51.110;6.998;2024-03-06T05:14:50;28.30;;;14.73;;
57401;SDS011;43226;51.110;6.998;2024-03-06T05:17:16;28.23;;;15.13;;
57401;SDS011;43226;51.110;6.998;2024-03-06T05:19:41;28.57;;;14.47;;
57401;SDS011;43226;51.110;6.998;2024-03-06T05:22:07;36.87;;;15.73;;
57401;SDS011;43226;51.110;6.998;2024-03-06T05:24:32;32.07;;;16.67;;
57401;SDS011;43226;51.110;6.998;2024-03-06T05:26:57;27.43;;;13.80;;
57401;SDS011;43226;51.110;6.998;2024-03-06T05:29:22;31.10;;;15.13;;
57401;SDS011;43226;51.110;6.998;2024-03-06T05:31:47;28.80;;;16.20;;
57401;SDS011;43226;51.110;6.998;2024-03-06T05:34:13;29.53;;;14.97;;
57401;SDS011;43226;51.110;6.998;2024-03-06T05:36:38;35.53;;;15.60;;
57401;SDS011;43226;51.110;6.998;2024-03-06T05:39:03;30.80;;;15.23;;
57401;SDS011;43226;51.110;6.998;2024-03-06T05:41:32;33.40;;;16.67;;
57401;SDS011;43226;51.110;6.998;2024-03-06T05:43:57;34.00;;;15.87;;
57401;SDS011;43226;51.110;6.998;2024-03-06T05:46:22;37.50;;;15.93;;
57401;SDS011;43226;51.110;6.998;2024-03-06T05:48:48;33.37;;;17.23;;
57401;SDS011;43226;51.110;6.998;2024-03-06T05:51:13;31.47;;;16.70;;
57401;SDS011;43226;51.110;6.998;2024-03-06T05:53:38;36.97;;;16.90;;
57401;SDS011;43226;51.110;6.998;2024-03-06T05:56:06;37.33;;;17.73;;
57401;SDS011;43226;51.110;6.998;2024-03-06T05:58:31;35.47;;;17.33;;
57401;SDS011;43226;51.110;6.998;2024-03-06T06:00:56;30.63;;;16.10;;
57401;SDS011;43226;51.110;6.998;2024-03-06T06:03:22;32.30;;;17.17;;
57401;SDS011;43226;51.110;6.998;2024-03-06T06:05:47;33.40;;;16.77;;
57401;SDS011;43226;51.110;6.998;2024-03-06T06:08:12;28.73;;;16.17;;
57401;SDS011;43226;51.110;6.998;2024-03-06T06:10:37;30.97;;;17.17;;
57401;SDS011;43226;51.110;6.998;2024-03-06T06:13:02;39.60;;;17.30;;
57401;SDS011;43226;51.110;6.998;2024-03-06T06:15:29;33.27;;;17.83;;
57401;SDS011;43226;51.110;6.998;2024-03-06T06:17:55;36.40;;;17.67;;
57401;SDS011;43226;51.110;6.998;2024-03-06T06:20:20;30.43;;;15.30;;
57401;SDS011;43226;51.110;6.998;2024-03-06T06:22:45;27.87;;;15.33;;
57401;SDS011;43226;51.110;6.998;2024-03-06T06:25:10;30.97;;;15.57;;
57401;SDS011;43226;51.110;6.998;2024-03-06T06:27:36;31.67;;;16.10;;
57401;SDS011;43226;51.110;6.998;2024-03-06T06:30:01;33.63;;;15.97;;
57401;SDS011;43226;51.110;6.998;2024-03-06T06:32:26;31.73;;;15.60;;
57401;SDS011;43226;51.110;6.998;2024-03-06T06:34:52;29.90;;;16.10;;
57401;SDS011;43226;51.110;6.998;2024-03-06T06:37:17;36.03;;;15.27;;
57401;SDS011;43226;51.110;6.998;2024-03-06T06:39:44;40.77;;;16.33;;
57401;SDS011;43226;51.110;6.998;2024-03-06T06:42:09;31.33;;;17.37;;
57401;SDS011;43226;51.110;6.998;2024-03-06T06:44:35;32.07;;;15.90;;
57401;SDS011;43226;51.110;6.998;2024-03-06T06:47:01;28.37;;;16.17;;
57401;SDS011;43226;51.110;6.998;2024-03-06T06:49:27;28.57;;;16.10;;
57401;SDS011;43226;51.110;6.998;2024-03-06T06:51:52;29.57;;;15.47;;
57401;SDS011;43226;51.110;6.998;2024-03-06T06:54:17;37.63;;;17.13;;
57401;SDS011;43226;51.110;6.998;2024-03-06T06:56:43;36.13;;;17.33;;
57401;SDS011;43226;51.110;6.998;2024-03-06T06:59:08;31.50;;;16.40;;
57401;SDS011;43226;51.110;6.998;2024-03-06T07:01:33;32.03;;;15.93;;
57401;SDS011;43226;51.110;6.998;2024-03-06T07:03:58;36.87;;;17.17;;
57401;SDS011;43226;51.110;6.998;2024-03-06T07:06:23;39.70;;;17.00;;
57401;SDS011;43226;51.110;6.998;2024-03-06T07:08:49;36.13;;;17.67;;
57401;SDS011;43226;51.110;6.998;2024-03-06T07:11:16;39.13;;;17.87;;
57401;SDS011;43226;51.110;6.998;2024-03-06T07:13:41;38.00;;;18.47;;
57401;SDS011;43226;51.110;6.998;2024-03-06T07:16:08;37.97;;;16.50;;
57401;SDS011;43226;51.110;6.998;2024-03-06T07:18:34;39.70;;;17.27;;
57401;SDS011;43226;51.110;6.998;2024-03-06T07:20:59;34.93;;;17.47;;
57401;SDS011;43226;51.110;6.998;2024-03-06T07:23:25;31.93;;;16.00;;
57401;SDS011;43226;51.110;6.998;2024-03-06T07:25:50;41.13;;;18.17;;
57401;SDS011;43226;51.110;6.998;2024-03-06T07:28:15;34.77;;;16.70;;
57401;SDS011;43226;51.110;6.998;2024-03-06T07:30:41;48.33;;;19.93;;
57401;SDS011;43226;51.110;6.998;2024-03-06T07:33:06;38.27;;;16.20;;
57401;SDS011;43226;51.110;6.998;2024-03-06T07:35:32;54.97;;;21.50;;
57401;SDS011;43226;51.110;6.998;2024-03-06T07:37:57;57.70;;;23.20;;
57401;SDS011;43226;51.110;6.998;2024-03-06T07:40:22;45.47;;;20.20;;
57401;SDS011;43226;51.110;6.998;2024-03-06T07:42:48;55.60;;;23.90;;
57401;SDS011;43226;51.110;6.998;2024-03-06T07:45:13;53.90;;;22.60;;
57401;SDS011;43226;51.110;6.998;2024-03-06T07:47:38;50.90;;;20.47;;
57401;SDS011;43226;51.110;6.998;2024-03-06T07:50:07;54.80;;;24.70;;
57401;SDS011;43226;51.110;6.998;2024-03-06T07:52:33;52.57;;;21.13;;
57401;SDS011;43226;51.110;6.998;2024-03-06T07:54:58;57.13;;;22.40;;
57401;SDS011;43226;51.110;6.998;2024-03-06T07:57:23;48.17;;;23.13;;
57401;SDS011;43226;51.110;6.998;2024-03-06T07:59:48;51.73;;;23.27;;
57401;SDS011;43226;51.110;6.998;2024-03-06T08:02:16;54.97;;;21.77;;
57401;SDS011;43226;51.110;6.998;2024-03-06T08:04:41;51.87;;;22.20;;
57401;SDS011;43226;51.110;6.998;2024-03-06T08:07:06;51.20;;;24.20;;
57401;SDS011;43226;51.110;6.998;2024-03-06T08:09:31;70.73;;;26.60;;
57401;SDS011;43226;51.110;6.998;2024-03-06T08:11:57;60.17;;;25.60;;
57401;SDS011;43226;51.110;6.998;2024-03-06T08:14:22;63.20;;;24.40;;
57401;SDS011;43226;51.110;6.998;2024-03-06T08:16:49;50.87;;;22.67;;
57401;SDS011;43226;51.110;6.998;2024-03-06T08:19:14;58.47;;;24.77;;
57401;SDS011;43226;51.110;6.998;2024-03-06T08:21:39;59.50;;;25.57;;
57401;SDS011;43226;51.110;6.998;2024-03-06T08:24:04;60.47;;;25.20;;
57401;SDS011;43226;51.110;6.998;2024-03-06T08:26:30;62.13;;;24.97;;
57401;SDS011;43226;51.110;6.998;2024-03-06T08:28:55;51.30;;;22.57;;
57401;SDS011;43226;51.110;6.998;2024-03-06T08:31:20;68.50;;;26.00;;
57401;SDS011;43226;51.110;6.998;2024-03-06T08:33:46;64.00;;;25.27;;
57401;SDS011;43226;51.110;6.998;2024-03-06T08:36:12;60.77;;;25.73;;
57401;SDS011;43226;51.110;6.998;2024-03-06T08:38:38;66.43;;;22.80;;
57401;SDS011;43226;51.110;6.998;2024-03-06T08:41:05;62.93;;;25.47;;
57401;SDS011;43226;51.110;6.998;2024-03-06T08:43:31;53.30;;;23.40;;
57401;SDS011;43226;51.110;6.998;2024-03-06T08:45:56;47.77;;;21.33;;
57401;SDS011;43226;51.110;6.998;2024-03-06T08:48:21;56.73;;;24.17;;
57401;SDS011;43226;51.110;6.998;2024-03-06T08:50:46;52.50;;;22.30;;
57401;SDS011;43226;51.110;6.998;2024-03-06T08:53:12;54.00;;;24.17;;
57401;SDS011;43226;51.110;6.998;2024-03-06T08:55:38;48.63;;;21.97;;
57401;SDS011;43226;51.110;6.998;2024-03-06T08:58:04;45.03;;;20.13;;
57401;SDS011;43226;51.110;6.998;2024-03-06T09:00:29;46.73;;;22.00;;
57401;SDS011;43226;51.110;6.998;2024-03-06T09:02:54;42.40;;;20.60;;
57401;SDS011;43226;51.110;6.998;2024-03-06T09:05:19;44.23;;;21.10;;
57401;SDS011;43226;51.110;6.998;2024-03-06T09:07:46;54.03;;;23.43;;
57401;SDS011;43226;51.110;6.998;2024-03-06T09:10:12;45.23;;;22.20;;
57401;SDS011;43226;51.110;6.998;2024-03-06T09:12:38;46.67;;;20.50;;
57401;SDS011;43226;51.110;6.998;2024-03-06T09:15:03;39.77;;;19.63;;
57401;SDS011;43226;51.110;6.998;2024-03-06T09:17:28;40.43;;;20.67;;
57401;SDS011;43226;51.110;6.998;2024-03-06T09:19:54;40.63;;;19.33;;
57401;SDS011;43226;51.110;6.998;2024-03-06T09:22:20;41.87;;;21.20;;
57401;SDS011;43226;51.110;6.998;2024-03-06T09:24:45;37.73;;;19.93;;
57401;SDS011;43226;51.110;6.998;2024-03-06T09:27:10;39.97;;;19.07;;
57401;SDS011;43226;51.110;6.998;2024-03-06T09:29:35;47.30;;;20.53;;
57401;SDS011;43226;51.110;6.998;2024-03-06T09:32:01;41.40;;;19.50;;
57401;SDS011;43226;51.110;6.998;2024-03-06T09:34:26;40.80;;;21.53;;
57401;SDS011;43226;51.110;6.998;2024-03-06T09:36:51;38.50;;;18.97;;
57401;SDS011;43226;51.110;6.998;2024-03-06T09:39:17;44.73;;;20.00;;
57401;SDS011;43226;51.110;6.998;2024-03-06T09:41:49;40.90;;;20.27;;
57401;SDS011;43226;51.110;6.998;2024-03-06T09:44:15;35.30;;;18.07;;
57401;SDS011;43226;51.110;6.998;2024-03-06T09:46:44;39.60;;;19.90;;
57401;SDS011;43226;51.110;6.998;2024-03-06T09:49:10;37.80;;;18.90;;
57401;SDS011;43226;51.110;6.998;2024-03-06T09:51:35;32.80;;;18.27;;
57401;SDS011;43226;51.110;6.998;2024-03-06T09:54:01;35.60;;;18.20;;
57401;SDS011;43226;51.110;6.998;2024-03-06T09:56:28;33.60;;;19.77;;
57401;SDS011;43226;51.110;6.998;2024-03-06T09:58:53;32.10;;;17.50;;
57401;SDS011;43226;51.110;6.998;2024-03-06T10:01:19;40.03;;;19.23;;
57401;SDS011;43226;51.110;6.998;2024-03-06T10:03:44;37.80;;;18.50;;
57401;SDS011;43226;51.110;6.998;2024-03-06T10:06:11;43.47;;;19.80;;
57401;SDS011;43226;51.110;6.998;2024-03-06T10:08:36;37.43;;;18.17;;
57401;SDS011;43226;51.110;6.998;2024-03-06T10:11:02;38.67;;;19.60;;
57401;SDS011;43226;51.110;6.998;2024-03-06T10:13:28;40.70;;;20.60;;
57401;SDS011;43226;51.110;6.998;2024-03-06T10:15:57;40.53;;;19.70;;
57401;SDS011;43226;51.110;6.998;2024-03-06T10:18:22;42.93;;;20.07;;
57401;SDS011;43226;51.110;6.998;2024-03-06T10:20:52;40.03;;;19.93;;
57401;SDS011;43226;51.110;6.998;2024-03-06T10:23:18;36.77;;;19.50;;
57401;SDS011;43226;51.110;6.998;2024-03-06T10:25:43;40.03;;;20.73;;
57401;SDS011;43226;51.110;6.998;2024-03-06T10:28:10;32.83;;;18.37;;
57401;SDS011;43226;51.110;6.998;2024-03-06T10:30:39;39.93;;;18.67;;
57401;SDS011;43226;51.110;6.998;2024-03-06T10:33:08;36.23;;;18.50;;
57401;SDS011;43226;51.110;6.998;2024-03-06T10:35:34;33.70;;;18.33;;
57401;SDS011;43226;51.110;6.998;2024-03-06T10:38:00;33.87;;;18.37;;
57401;SDS011;43226;51.110;6.998;2024-03-06T10:40:26;30.67;;;15.87;;
57401;SDS011;43226;51.110;6.998;2024-03-06T10:42:54;30.27;;;15.43;;
57401;SDS011;43226;51.110;6.998;2024-03-06T10:45:19;25.50;;;15.93;;
57401;SDS011;43226;51.110;6.998;2024-03-06T10:47:47;27.07;;;16.67;;
57401;SDS011;43226;51.110;6.998;2024-03-06T10:50:14;31.70;;;16.93;;
57401;SDS011;43226;51.110;6.998;2024-03-06T10:52:39;26.37;;;14.90;;
57401;SDS011;43226;51.110;6.998;2024-03-06T10:55:05;27.87;;;16.60;;
57401;SDS011;43226;51.110;6.998;2024-03-06T10:57:31;24.43;;;14.87;;
57401;SDS011;43226;51.110;6.998;2024-03-06T10:59:57;25.33;;;14.90;;
57401;SDS011;43226;51.110;6.998;2024-03-06T11:02:25;28.67;;;15.50;;
57401;SDS011;43226;51.110;6.998;2024-03-06T11:04:52;25.83;;;14.23;;
57401;SDS011;43226;51.110;6.998;2024-03-06T11:07:18;23.53;;;14.20;;
57401;SDS011;43226;51.110;6.998;2024-03-06T11:09:43;27.97;;;14.73;;
57401;SDS011;43226;51.110;6.998;2024-03-06T11:12:09;23.77;;;13.30;;
57401;SDS011;43226;51.110;6.998;2024-03-06T11:14:37;25.70;;;15.50;;
57401;SDS011;43226;51.110;6.998;2024-03-06T11:17:08;22.33;;;14.03;;
57401;SDS011;43226;51.110;6.998;2024-03-06T11:22:17;20.60;;;13.70;;
57401;SDS011;43226;51.110;6.998;2024-03-06T11:24:42;19.27;;;13.53;;
57401;SDS011;43226;51.110;6.998;2024-03-06T11:27:07;26.23;;;15.07;;
57401;SDS011;43226;51.110;6.998;2024-03-06T11:32:19;19.90;;;15.50;;
57401;SDS011;43226;51.110;6.998;2024-03-06T11:34:44;22.30;;;15.10;;
57401;SDS011;43226;51.110;6.998;2024-03-06T11:37:09;22.00;;;16.63;;
57401;SDS011;43226;51.110;6.998;2024-03-06T11:39:35;17.60;;;14.87;;
57401;SDS011;43226;51.110;6.998;2024-03-06T11:42:01;21.00;;;14.50;;
57401;SDS011;43226;51.110;6.998;2024-03-06T11:44:27;17.03;;;14.27;;
57401;SDS011;43226;51.110;6.998;2024-03-06T11:49:23;16.23;;;13.37;;
57401;SDS011;43226;51.110;6.998;2024-03-06T11:51:54;17.93;;;13.80;;
57401;SDS011;43226;51.110;6.998;2024-03-06T11:54:20;14.83;;;13.23;;
57401;SDS011;43226;51.110;6.998;2024-03-06T11:56:52;18.87;;;14.33;;
57401;SDS011;43226;51.110;6.998;2024-03-06T11:59:25;16.60;;;12.77;;
57401;SDS011;43226;51.110;6.998;2024-03-06T12:01:54;16.40;;;13.73;;
57401;SDS011;43226;51.110;6.998;2024-03-06T12:04:20;16.40;;;13.30;;
57401;SDS011;43226;51.110;6.998;2024-03-06T12:06:46;17.53;;;13.80;;
57401;SDS011;43226;51.110;6.998;2024-03-06T12:09:11;16.10;;;12.87;;
57401;SDS011;43226;51.110;6.998;2024-03-06T12:11:37;16.10;;;13.87;;
57401;SDS011;43226;51.110;6.998;2024-03-06T12:14:02;17.43;;;13.77;;
57401;SDS011;43226;51.110;6.998;2024-03-06T12:16:27;17.53;;;13.07;;
57401;SDS011;43226;51.110;6.998;2024-03-06T12:18:58;15.73;;;11.97;;
57401;SDS011;43226;51.110;6.998;2024-03-06T12:21:27;15.07;;;12.53;;
57401;SDS011;43226;51.110;6.998;2024-03-06T12:24:01;17.27;;;11.93;;
57401;SDS011;43226;51.110;6.998;2024-03-06T12:26:27;17.53;;;12.50;;
57401;SDS011;43226;51.110;6.998;2024-03-06T12:28:53;16.80;;;11.67;;
57401;SDS011;43226;51.110;6.998;2024-03-06T12:31:28;14.27;;;11.13;;
57401;SDS011;43226;51.110;6.998;2024-03-06T12:33:56;15.33;;;10.77;;
57401;SDS011;43226;51.110;6.998;2024-03-06T12:36:24;15.23;;;10.67;;
57401;SDS011;43226;51.110;6.998;2024-03-06T12:38:54;13.70;;;9.93;;
57401;SDS011;43226;51.110;6.998;2024-03-06T12:41:19;14.20;;;10.13;;
57401;SDS011;43226;51.110;6.998;2024-03-06T12:43:44;11.33;;;8.73;;
57401;SDS011;43226;51.110;6.998;2024-03-06T12:46:10;13.13;;;9.83;;
57401;SDS011;43226;51.110;6.998;2024-03-06T12:48:35;12.37;;;9.70;;
57401;SDS011;43226;51.110;6.998;2024-03-06T12:51:00;12.97;;;8.70;;
57401;SDS011;43226;51.110;6.998;2024-03-06T12:53:29;11.47;;;8.67;;
57401;SDS011;43226;51.110;6.998;2024-03-06T12:55:55;12.13;;;9.90;;
57401;SDS011;43226;51.110;6.998;2024-03-06T12:58:20;13.20;;;10.47;;
57401;SDS011;43226;51.110;6.998;2024-03-06T13:00:46;17.67;;;10.03;;
57401;SDS011;43226;51.110;6.998;2024-03-06T13:03:11;11.40;;;9.67;;
57401;SDS011;43226;51.110;6.998;2024-03-06T13:05:36;14.70;;;10.17;;
57401;SDS011;43226;51.110;6.998;2024-03-06T13:08:02;12.07;;;9.60;;
57401;SDS011;43226;51.110;6.998;2024-03-06T13:10:27;13.37;;;10.30;;
57401;SDS011;43226;51.110;6.998;2024-03-06T13:12:52;12.13;;;9.10;;
57401;SDS011;43226;51.110;6.998;2024-03-06T13:15:18;11.70;;;9.30;;
57401;SDS011;43226;51.110;6.998;2024-03-06T13:17:43;15.07;;;9.47;;
57401;SDS011;43226;51.110;6.998;2024-03-06T13:20:08;13.17;;;8.80;;
57401;SDS011;43226;51.110;6.998;2024-03-06T13:22:37;13.93;;;9.53;;
57401;SDS011;43226;51.110;6.998;2024-03-06T13:25:02;11.03;;;7.90;;
57401;SDS011;43226;51.110;6.998;2024-03-06T13:27:27;12.40;;;9.07;;
57401;SDS011;43226;51.110;6.998;2024-03-06T13:29:52;14.57;;;10.80;;
57401;SDS011;43226;51.110;6.998;2024-03-06T13:32:18;12.23;;;8.30;;
57401;SDS011;43226;51.110;6.998;2024-03-06T13:34:43;8.93;;;6.50;;
57401;SDS011;43226;51.110;6.998;2024-03-06T13:37:08;17.47;;;10.43;;
57401;SDS011;43226;51.110;6.998;2024-03-06T13:39:35;14.80;;;9.90;;
57401;SDS011;43226;51.110;6.998;2024-03-06T13:42:00;12.00;;;8.03;;
57401;SDS011;43226;51.110;6.998;2024-03-06T13:44:25;12.07;;;8.37;;
57401;SDS011;43226;51.110;6.998;2024-03-06T13:46:51;9.27;;;6.87;;
57401;SDS011;43226;51.110;6.998;2024-03-06T13:52:00;11.00;;;4.73;;
57401;SDS011;43226;51.110;6.998;2024-03-06T13:54:25;8.53;;;5.20;;
57401;SDS011;43226;51.110;6.998;2024-03-06T13:56:50;10.43;;;6.87;;
57401;SDS011;43226;51.110;6.998;2024-03-06T13:59:15;8.63;;;6.40;;
57401;SDS011;43226;51.110;6.998;2024-03-06T14:01:41;15.53;;;7.33;;
57401;SDS011;43226;51.110;6.998;2024-03-06T14:04:06;8.03;;;6.17;;
57401;SDS011;43226;51.110;6.998;2024-03-06T14:06:31;7.73;;;6.33;;
57401;SDS011;43226;51.110;6.998;2024-03-06T14:08:56;9.83;;;6.70;;
57401;SDS011;43226;51.110;6.998;2024-03-06T14:11:22;9.87;;;6.80;;
57401;SDS011;43226;51.110;6.998;2024-03-06T14:13:47;9.90;;;6.50;;
57401;SDS011;43226;51.110;6.998;2024-03-06T14:16:12;11.37;;;7.07;;
57401;SDS011;43226;51.110;6.998;2024-03-06T14:18:37;11.83;;;7.83;;
57401;SDS011;43226;51.110;6.998;2024-03-06T14:21:03;13.07;;;7.27;;
57401;SDS011;43226;51.110;6.998;2024-03-06T14:23:28;10.77;;;7.10;;
57401;SDS011;43226;51.110;6.998;2024-03-06T14:25:54;11.00;;;7.87;;